Terminal Aerodrome Forecast
Issued by NWS

Home | Current Version | Previous Version | Text Only | Print | Product List | Glossary On
Versions: 1 2 3 4 5 6 7 8 9 10 11 12 13 14 15 16 17 18 19 20 21 22 23 24 25 26 27 28 29 30 31 32 33 34
000
FTUS46 KSEW 181139
TAFBFI
TAF
KBFI 181139Z 1812/1912 20006KT P6SM OVC014
     FM181400 VRB03KT P6SM OVC008
      TEMPO 1814/1818 3SM -DZ
     FM181800 VRB03KT P6SM OVC011
     FM182000 VRB03KT P6SM SCT011 BKN025
     FM182200 20006KT P6SM SCT025 BKN040 BKN060
     FM190900 18010KT P6SM OVC025=

USA.gov is the U.S. government's official web portal to all federal, state and local government web resources and services.